<?xml version="1.0" encoding="UTF-8" standalone="no" ?><gpx xmlns="http://www.topografix.com/GPX/1/1" xmlns:gpxx="http://www.garmin.com/xmlschemas/GpxExtensions/v3" xmlns:wptx1="http://www.garmin.com/xmlschemas/WaypointExtension/v1" xmlns:gpxtpx="http://www.garmin.com/xmlschemas/TrackPointExtension/v1" creator="GuideVTT.com" version="1.1" xmlns:xsi="http://www.w3.org/2001/XMLSchema-instance" xsi:schemaLocation="http://www.topografix.com/GPX/1/1 http://www.topografix.com/GPX/1/1/gpx.xsd http://www.garmin.com/xmlschemas/GpxExtensions/v3 http://www8.garmin.com/xmlschemas/GpxExtensionsv3.xsd http://www.garmin.com/xmlschemas/WaypointExtension/v1 http://www8.garmin.com/xmlschemas/WaypointExtensionv1.xsd http://www.garmin.com/xmlschemas/TrackPointExtension/v1 http://www.garmin.com/xmlschemas/TrackPointExtensionv1.xsd">
<metadata><link href="http://www.garmin.com"><text>Garmin International</text></link><time>2013-06-22T15:13:50Z</time></metadata>
<trk><name>17sept08.gpx</name><extensions><gpxx:TrackExtension><gpxx:DisplayColor>Cyan</gpxx:DisplayColor></gpxx:TrackExtension></extensions><trkseg>
<trkpt lat="42.30513300" lon="-1.41711700"><ele></ele><time>2014-6-11T22:27:29Z</time></trkpt>
<trkpt lat="42.30383300" lon="-1.41865000"><ele></ele><time>2014-6-11T22:27:32Z</time></trkpt>
<trkpt lat="42.30371700" lon="-1.41941700"><ele></ele><time>2014-6-11T22:27:35Z</time></trkpt>
<trkpt lat="42.30316700" lon="-1.42126700"><ele></ele><time>2014-6-11T22:27:38Z</time></trkpt>
<trkpt lat="42.30278300" lon="-1.42228300"><ele></ele><time>2014-6-11T22:27:41Z</time></trkpt>
<trkpt lat="42.30145000" lon="-1.42778300"><ele></ele><time>2014-6-11T22:27:44Z</time></trkpt>
<trkpt lat="42.30135000" lon="-1.42881700"><ele></ele><time>2014-6-11T22:27:47Z</time></trkpt>
<trkpt lat="42.30018300" lon="-1.43378300"><ele></ele><time>2014-6-11T22:27:50Z</time></trkpt>
<trkpt lat="42.30001700" lon="-1.43418300"><ele></ele><time>2014-6-11T22:27:53Z</time></trkpt>
<trkpt lat="42.30015000" lon="-1.43468300"><ele></ele><time>2014-6-11T22:27:56Z</time></trkpt>
<trkpt lat="42.30071700" lon="-1.43421700"><ele></ele><time>2014-6-11T22:27:59Z</time></trkpt>
<trkpt lat="42.30095000" lon="-1.43431700"><ele></ele><time>2014-6-11T22:28:2Z</time></trkpt>
<trkpt lat="42.30098300" lon="-1.43463300"><ele></ele><time>2014-6-11T22:28:5Z</time></trkpt>
<trkpt lat="42.30136700" lon="-1.43523300"><ele></ele><time>2014-6-11T22:28:8Z</time></trkpt>
<trkpt lat="42.30200000" lon="-1.43568300"><ele></ele><time>2014-6-11T22:28:11Z</time></trkpt>
<trkpt lat="42.30241700" lon="-1.43585000"><ele></ele><time>2014-6-11T22:28:14Z</time></trkpt>
<trkpt lat="42.30268300" lon="-1.43633300"><ele></ele><time>2014-6-11T22:28:17Z</time></trkpt>
<trkpt lat="42.30271700" lon="-1.43668300"><ele></ele><time>2014-6-11T22:28:20Z</time></trkpt>
<trkpt lat="42.30261700" lon="-1.43721700"><ele></ele><time>2014-6-11T22:28:23Z</time></trkpt>
<trkpt lat="42.30266700" lon="-1.43773300"><ele></ele><time>2014-6-11T22:28:26Z</time></trkpt>
<trkpt lat="42.30280000" lon="-1.43810000"><ele></ele><time>2014-6-11T22:28:29Z</time></trkpt>
<trkpt lat="42.30301700" lon="-1.43846700"><ele></ele><time>2014-6-11T22:28:32Z</time></trkpt>
<trkpt lat="42.30316700" lon="-1.43868300"><ele></ele><time>2014-6-11T22:28:35Z</time></trkpt>
<trkpt lat="42.30408300" lon="-1.43875000"><ele></ele><time>2014-6-11T22:28:38Z</time></trkpt>
<trkpt lat="42.30433300" lon="-1.43875000"><ele></ele><time>2014-6-11T22:28:41Z</time></trkpt>
<trkpt lat="42.30456700" lon="-1.43846700"><ele></ele><time>2014-6-11T22:28:44Z</time></trkpt>
<trkpt lat="42.30505000" lon="-1.43856700"><ele></ele><time>2014-6-11T22:28:47Z</time></trkpt>
<trkpt lat="42.30551700" lon="-1.43920000"><ele></ele><time>2014-6-11T22:28:50Z</time></trkpt>
<trkpt lat="42.30553300" lon="-1.43988300"><ele></ele><time>2014-6-11T22:28:53Z</time></trkpt>
<trkpt lat="42.30570000" lon="-1.44035000"><ele></ele><time>2014-6-11T22:28:56Z</time></trkpt>
<trkpt lat="42.30570000" lon="-1.44061700"><ele></ele><time>2014-6-11T22:28:59Z</time></trkpt>
<trkpt lat="42.30570000" lon="-1.44095000"><ele></ele><time>2014-6-11T22:29:2Z</time></trkpt>
<trkpt lat="42.30585000" lon="-1.44121700"><ele></ele><time>2014-6-11T22:29:5Z</time></trkpt>
<trkpt lat="42.30608300" lon="-1.44130000"><ele></ele><time>2014-6-11T22:29:8Z</time></trkpt>
<trkpt lat="42.30645000" lon="-1.44170000"><ele></ele><time>2014-6-11T22:29:11Z</time></trkpt>
<trkpt lat="42.30673300" lon="-1.44180000"><ele></ele><time>2014-6-11T22:29:14Z</time></trkpt>
<trkpt lat="42.30706700" lon="-1.44180000"><ele></ele><time>2014-6-11T22:29:17Z</time></trkpt>
<trkpt lat="42.30741700" lon="-1.44198300"><ele></ele><time>2014-6-11T22:29:20Z</time></trkpt>
<trkpt lat="42.30798300" lon="-1.44245000"><ele></ele><time>2014-6-11T22:29:23Z</time></trkpt>
<trkpt lat="42.30836700" lon="-1.44250000"><ele></ele><time>2014-6-11T22:29:26Z</time></trkpt>
<trkpt lat="42.30916700" lon="-1.44353300"><ele></ele><time>2014-6-11T22:29:29Z</time></trkpt>
<trkpt lat="42.30963300" lon="-1.44441700"><ele></ele><time>2014-6-11T22:29:32Z</time></trkpt>
<trkpt lat="42.31050000" lon="-1.44495000"><ele></ele><time>2014-6-11T22:29:35Z</time></trkpt>
<trkpt lat="42.31135000" lon="-1.44531700"><ele></ele><time>2014-6-11T22:29:38Z</time></trkpt>
<trkpt lat="42.31126700" lon="-1.44606700"><ele></ele><time>2014-6-11T22:29:41Z</time></trkpt>
<trkpt lat="42.31113300" lon="-1.44645000"><ele></ele><time>2014-6-11T22:29:44Z</time></trkpt>
<trkpt lat="42.31098300" lon="-1.44720000"><ele></ele><time>2014-6-11T22:29:47Z</time></trkpt>
<trkpt lat="42.31093300" lon="-1.44770000"><ele></ele><time>2014-6-11T22:29:50Z</time></trkpt>
<trkpt lat="42.31095000" lon="-1.44836700"><ele></ele><time>2014-6-11T22:29:53Z</time></trkpt>
<trkpt lat="42.31078300" lon="-1.44990000"><ele></ele><time>2014-6-11T22:29:56Z</time></trkpt>
<trkpt lat="42.31051700" lon="-1.45098300"><ele></ele><time>2014-6-11T22:29:59Z</time></trkpt>
<trkpt lat="42.31043300" lon="-1.45155000"><ele></ele><time>2014-6-11T22:30:2Z</time></trkpt>
<trkpt lat="42.31031700" lon="-1.45196700"><ele></ele><time>2014-6-11T22:30:5Z</time></trkpt>
<trkpt lat="42.31013300" lon="-1.45221700"><ele></ele><time>2014-6-11T22:30:8Z</time></trkpt>
<trkpt lat="42.31003300" lon="-1.45256700"><ele></ele><time>2014-6-11T22:30:11Z</time></trkpt>
<trkpt lat="42.30981700" lon="-1.45281700"><ele></ele><time>2014-6-11T22:30:14Z</time></trkpt>
<trkpt lat="42.30946700" lon="-1.45305000"><ele></ele><time>2014-6-11T22:30:17Z</time></trkpt>
<trkpt lat="42.30916700" lon="-1.45300000"><ele></ele><time>2014-6-11T22:30:20Z</time></trkpt>
<trkpt lat="42.30886700" lon="-1.45281700"><ele></ele><time>2014-6-11T22:30:23Z</time></trkpt>
<trkpt lat="42.30863300" lon="-1.45268300"><ele></ele><time>2014-6-11T22:30:26Z</time></trkpt>
<trkpt lat="42.30845000" lon="-1.45263300"><ele></ele><time>2014-6-11T22:30:29Z</time></trkpt>
<trkpt lat="42.30753300" lon="-1.45245000"><ele></ele><time>2014-6-11T22:30:32Z</time></trkpt>
<trkpt lat="42.30735000" lon="-1.45268300"><ele></ele><time>2014-6-11T22:30:35Z</time></trkpt>
<trkpt lat="42.30751700" lon="-1.45341700"><ele></ele><time>2014-6-11T22:30:38Z</time></trkpt>
<trkpt lat="42.30715000" lon="-1.45433300"><ele></ele><time>2014-6-11T22:30:41Z</time></trkpt>
<trkpt lat="42.30648300" lon="-1.45541700"><ele></ele><time>2014-6-11T22:30:44Z</time></trkpt>
<trkpt lat="42.30651700" lon="-1.45586700"><ele></ele><time>2014-6-11T22:30:47Z</time></trkpt>
<trkpt lat="42.30666700" lon="-1.45621700"><ele></ele><time>2014-6-11T22:30:50Z</time></trkpt>
<trkpt lat="42.30658300" lon="-1.45678300"><ele></ele><time>2014-6-11T22:30:53Z</time></trkpt>
<trkpt lat="42.30656700" lon="-1.45725000"><ele></ele><time>2014-6-11T22:30:56Z</time></trkpt>
<trkpt lat="42.30680000" lon="-1.45765000"><ele></ele><time>2014-6-11T22:30:59Z</time></trkpt>
<trkpt lat="42.30735000" lon="-1.45803300"><ele></ele><time>2014-6-11T22:31:2Z</time></trkpt>
<trkpt lat="42.30793300" lon="-1.45876700"><ele></ele><time>2014-6-11T22:31:5Z</time></trkpt>
<trkpt lat="42.30803300" lon="-1.45928300"><ele></ele><time>2014-6-11T22:31:8Z</time></trkpt>
<trkpt lat="42.30826700" lon="-1.45995000"><ele></ele><time>2014-6-11T22:31:11Z</time></trkpt>
<trkpt lat="42.30828300" lon="-1.46046700"><ele></ele><time>2014-6-11T22:31:14Z</time></trkpt>
<trkpt lat="42.30843300" lon="-1.46090000"><ele></ele><time>2014-6-11T22:31:17Z</time></trkpt>
<trkpt lat="42.30881700" lon="-1.46141700"><ele></ele><time>2014-6-11T22:31:20Z</time></trkpt>
<trkpt lat="42.30908300" lon="-1.46208300"><ele></ele><time>2014-6-11T22:31:23Z</time></trkpt>
<trkpt lat="42.30920000" lon="-1.46285000"><ele></ele><time>2014-6-11T22:31:26Z</time></trkpt>
<trkpt lat="42.31065000" lon="-1.46456700"><ele></ele><time>2014-6-11T22:31:29Z</time></trkpt>
<trkpt lat="42.31093300" lon="-1.46516700"><ele></ele><time>2014-6-11T22:31:32Z</time></trkpt>
<trkpt lat="42.31138300" lon="-1.46586700"><ele></ele><time>2014-6-11T22:31:35Z</time></trkpt>
<trkpt lat="42.31160000" lon="-1.46640000"><ele></ele><time>2014-6-11T22:31:38Z</time></trkpt>
<trkpt lat="42.31205000" lon="-1.46698300"><ele></ele><time>2014-6-11T22:31:41Z</time></trkpt>
<trkpt lat="42.31236700" lon="-1.46728300"><ele></ele><time>2014-6-11T22:31:44Z</time></trkpt>
<trkpt lat="42.31270000" lon="-1.46780000"><ele></ele><time>2014-6-11T22:31:47Z</time></trkpt>
<trkpt lat="42.31325000" lon="-1.46835000"><ele></ele><time>2014-6-11T22:31:50Z</time></trkpt>
<trkpt lat="42.31381700" lon="-1.46895000"><ele></ele><time>2014-6-11T22:31:53Z</time></trkpt>
<trkpt lat="42.31460000" lon="-1.47080000"><ele></ele><time>2014-6-11T22:31:56Z</time></trkpt>
<trkpt lat="42.31703300" lon="-1.47291700"><ele></ele><time>2014-6-11T22:31:59Z</time></trkpt>
<trkpt lat="42.31755000" lon="-1.47360000"><ele></ele><time>2014-6-11T22:32:2Z</time></trkpt>
<trkpt lat="42.31793300" lon="-1.47411700"><ele></ele><time>2014-6-11T22:32:5Z</time></trkpt>
<trkpt lat="42.31820000" lon="-1.47463300"><ele></ele><time>2014-6-11T22:32:8Z</time></trkpt>
<trkpt lat="42.31851700" lon="-1.47508300"><ele></ele><time>2014-6-11T22:32:11Z</time></trkpt>
<trkpt lat="42.31873300" lon="-1.47586700"><ele></ele><time>2014-6-11T22:32:14Z</time></trkpt>
<trkpt lat="42.32040000" lon="-1.48083300"><ele></ele><time>2014-6-11T22:32:17Z</time></trkpt>
<trkpt lat="42.32118300" lon="-1.48165000"><ele></ele><time>2014-6-11T22:32:20Z</time></trkpt>
<trkpt lat="42.32156700" lon="-1.48210000"><ele></ele><time>2014-6-11T22:32:23Z</time></trkpt>
<trkpt lat="42.32438300" lon="-1.48388300"><ele></ele><time>2014-6-11T22:32:26Z</time></trkpt>
<trkpt lat="42.32545000" lon="-1.48483300"><ele></ele><time>2014-6-11T22:32:29Z</time></trkpt>
<trkpt lat="42.32665000" lon="-1.48555000"><ele></ele><time>2014-6-11T22:32:32Z</time></trkpt>
<trkpt lat="42.32708300" lon="-1.48608300"><ele></ele><time>2014-6-11T22:32:35Z</time></trkpt>
<trkpt lat="42.32826700" lon="-1.48696700"><ele></ele><time>2014-6-11T22:32:38Z</time></trkpt>
<trkpt lat="42.32955000" lon="-1.48841700"><ele></ele><time>2014-6-11T22:32:41Z</time></trkpt>
<trkpt lat="42.33001700" lon="-1.48885000"><ele></ele><time>2014-6-11T22:32:44Z</time></trkpt>
<trkpt lat="42.33191700" lon="-1.49168300"><ele></ele><time>2014-6-11T22:32:47Z</time></trkpt>
<trkpt lat="42.33270000" lon="-1.49351700"><ele></ele><time>2014-6-11T22:32:50Z</time></trkpt>
<trkpt lat="42.33356700" lon="-1.49501700"><ele></ele><time>2014-6-11T22:32:53Z</time></trkpt>
<trkpt lat="42.33380000" lon="-1.49565000"><ele></ele><time>2014-6-11T22:32:56Z</time></trkpt>
<trkpt lat="42.33508300" lon="-1.49808300"><ele></ele><time>2014-6-11T22:32:59Z</time></trkpt>
<trkpt lat="42.33531700" lon="-1.49881700"><ele></ele><time>2014-6-11T22:33:2Z</time></trkpt>
<trkpt lat="42.33561700" lon="-1.49961700"><ele></ele><time>2014-6-11T22:33:5Z</time></trkpt>
<trkpt lat="42.33161700" lon="-1.50106700"><ele></ele><time>2014-6-11T22:33:8Z</time></trkpt>
<trkpt lat="42.33031700" lon="-1.50171700"><ele></ele><time>2014-6-11T22:33:11Z</time></trkpt>
<trkpt lat="42.32966700" lon="-1.50235000"><ele></ele><time>2014-6-11T22:33:14Z</time></trkpt>
<trkpt lat="42.32855000" lon="-1.50293300"><ele></ele><time>2014-6-11T22:33:17Z</time></trkpt>
<trkpt lat="42.32781700" lon="-1.50335000"><ele></ele><time>2014-6-11T22:33:20Z</time></trkpt>
<trkpt lat="42.32641700" lon="-1.50398300"><ele></ele><time>2014-6-11T22:33:23Z</time></trkpt>
<trkpt lat="42.32576700" lon="-1.50466700"><ele></ele><time>2014-6-11T22:33:26Z</time></trkpt>
<trkpt lat="42.32458300" lon="-1.50573300"><ele></ele><time>2014-6-11T22:33:29Z</time></trkpt>
<trkpt lat="42.32286700" lon="-1.50776700"><ele></ele><time>2014-6-11T22:33:32Z</time></trkpt>
<trkpt lat="42.32170000" lon="-1.50891700"><ele></ele><time>2014-6-11T22:33:35Z</time></trkpt>
<trkpt lat="42.31985000" lon="-1.51076700"><ele></ele><time>2014-6-11T22:33:38Z</time></trkpt>
<trkpt lat="42.31405000" lon="-1.51671700"><ele></ele><time>2014-6-11T22:33:41Z</time></trkpt>
<trkpt lat="42.31353300" lon="-1.51745000"><ele></ele><time>2014-6-11T22:33:44Z</time></trkpt>
<trkpt lat="42.30725000" lon="-1.52290000"><ele></ele><time>2014-6-11T22:33:47Z</time></trkpt>
<trkpt lat="42.30635000" lon="-1.52331700"><ele></ele><time>2014-6-11T22:33:50Z</time></trkpt>
<trkpt lat="42.30170000" lon="-1.52651700"><ele></ele><time>2014-6-11T22:33:53Z</time></trkpt>
<trkpt lat="42.29981700" lon="-1.52716700"><ele></ele><time>2014-6-11T22:33:56Z</time></trkpt>
<trkpt lat="42.29751700" lon="-1.52878300"><ele></ele><time>2014-6-11T22:33:59Z</time></trkpt>
<trkpt lat="42.29601700" lon="-1.53063300"><ele></ele><time>2014-6-11T22:34:2Z</time></trkpt>
<trkpt lat="42.29506700" lon="-1.53138300"><ele></ele><time>2014-6-11T22:34:5Z</time></trkpt>
<trkpt lat="42.29461700" lon="-1.53166700"><ele></ele><time>2014-6-11T22:34:8Z</time></trkpt>
<trkpt lat="42.29418300" lon="-1.53188300"><ele></ele><time>2014-6-11T22:34:11Z</time></trkpt>
<trkpt lat="42.29133300" lon="-1.53375000"><ele></ele><time>2014-6-11T22:34:14Z</time></trkpt>
<trkpt lat="42.29070000" lon="-1.53435000"><ele></ele><time>2014-6-11T22:34:17Z</time></trkpt>
<trkpt lat="42.29025000" lon="-1.53483300"><ele></ele><time>2014-6-11T22:34:20Z</time></trkpt>
<trkpt lat="42.28960000" lon="-1.53533300"><ele></ele><time>2014-6-11T22:34:23Z</time></trkpt>
<trkpt lat="42.28930000" lon="-1.53561700"><ele></ele><time>2014-6-11T22:34:26Z</time></trkpt>
<trkpt lat="42.28758300" lon="-1.53376700"><ele></ele><time>2014-6-11T22:34:29Z</time></trkpt>
<trkpt lat="42.28596700" lon="-1.53148300"><ele></ele><time>2014-6-11T22:34:32Z</time></trkpt>
<trkpt lat="42.28468300" lon="-1.52943300"><ele></ele><time>2014-6-11T22:34:35Z</time></trkpt>
<trkpt lat="42.28423300" lon="-1.52848300"><ele></ele><time>2014-6-11T22:34:38Z</time></trkpt>
<trkpt lat="42.28083300" lon="-1.52248300"><ele></ele><time>2014-6-11T22:34:41Z</time></trkpt>
<trkpt lat="42.28018300" lon="-1.52071700"><ele></ele><time>2014-6-11T22:34:44Z</time></trkpt>
<trkpt lat="42.27980000" lon="-1.52006700"><ele></ele><time>2014-6-11T22:34:47Z</time></trkpt>
<trkpt lat="42.27951700" lon="-1.51946700"><ele></ele><time>2014-6-11T22:34:50Z</time></trkpt>
<trkpt lat="42.27928300" lon="-1.51935000"><ele></ele><time>2014-6-11T22:34:53Z</time></trkpt>
<trkpt lat="42.27896700" lon="-1.51880000"><ele></ele><time>2014-6-11T22:34:56Z</time></trkpt>
<trkpt lat="42.27896700" lon="-1.51836700"><ele></ele><time>2014-6-11T22:34:59Z</time></trkpt>
<trkpt lat="42.27815000" lon="-1.51656700"><ele></ele><time>2014-6-11T22:35:2Z</time></trkpt>
<trkpt lat="42.27708300" lon="-1.51468300"><ele></ele><time>2014-6-11T22:35:5Z</time></trkpt>
<trkpt lat="42.27643300" lon="-1.51365000"><ele></ele><time>2014-6-11T22:35:8Z</time></trkpt>
<trkpt lat="42.27628300" lon="-1.51321700"><ele></ele><time>2014-6-11T22:35:11Z</time></trkpt>
<trkpt lat="42.27590000" lon="-1.51181700"><ele></ele><time>2014-6-11T22:35:14Z</time></trkpt>
<trkpt lat="42.27570000" lon="-1.51135000"><ele></ele><time>2014-6-11T22:35:17Z</time></trkpt>
<trkpt lat="42.27521700" lon="-1.50970000"><ele></ele><time>2014-6-11T22:35:20Z</time></trkpt>
<trkpt lat="42.27488300" lon="-1.50875000"><ele></ele><time>2014-6-11T22:35:23Z</time></trkpt>
<trkpt lat="42.27436700" lon="-1.50723300"><ele></ele><time>2014-6-11T22:35:26Z</time></trkpt>
<trkpt lat="42.27418300" lon="-1.50696700"><ele></ele><time>2014-6-11T22:35:29Z</time></trkpt>
<trkpt lat="42.27406700" lon="-1.50666700"><ele></ele><time>2014-6-11T22:35:32Z</time></trkpt>
<trkpt lat="42.27401700" lon="-1.50638300"><ele></ele><time>2014-6-11T22:35:35Z</time></trkpt>
<trkpt lat="42.27405000" lon="-1.50666700"><ele></ele><time>2014-6-11T22:35:38Z</time></trkpt>
<trkpt lat="42.27418300" lon="-1.50686700"><ele></ele><time>2014-6-11T22:35:41Z</time></trkpt>
<trkpt lat="42.27423300" lon="-1.50636700"><ele></ele><time>2014-6-11T22:35:44Z</time></trkpt>
<trkpt lat="42.27433300" lon="-1.50600000"><ele></ele><time>2014-6-11T22:35:47Z</time></trkpt>
<trkpt lat="42.27436700" lon="-1.50575000"><ele></ele><time>2014-6-11T22:35:50Z</time></trkpt>
<trkpt lat="42.27433300" lon="-1.50515000"><ele></ele><time>2014-6-11T22:35:53Z</time></trkpt>
<trkpt lat="42.27440000" lon="-1.50501700"><ele></ele><time>2014-6-11T22:35:56Z</time></trkpt>
<trkpt lat="42.27448300" lon="-1.50523300"><ele></ele><time>2014-6-11T22:35:59Z</time></trkpt>
<trkpt lat="42.27461700" lon="-1.50521700"><ele></ele><time>2014-6-11T22:36:2Z</time></trkpt>
<trkpt lat="42.27481700" lon="-1.50515000"><ele></ele><time>2014-6-11T22:36:5Z</time></trkpt>
<trkpt lat="42.27490000" lon="-1.50483300"><ele></ele><time>2014-6-11T22:36:8Z</time></trkpt>
<trkpt lat="42.27501700" lon="-1.50468300"><ele></ele><time>2014-6-11T22:36:11Z</time></trkpt>
<trkpt lat="42.27511700" lon="-1.50388300"><ele></ele><time>2014-6-11T22:36:14Z</time></trkpt>
<trkpt lat="42.27496700" lon="-1.50346700"><ele></ele><time>2014-6-11T22:36:17Z</time></trkpt>
<trkpt lat="42.27506700" lon="-1.50293300"><ele></ele><time>2014-6-11T22:36:20Z</time></trkpt>
<trkpt lat="42.27498300" lon="-1.50225000"><ele></ele><time>2014-6-11T22:36:23Z</time></trkpt>
<trkpt lat="42.27461700" lon="-1.50131700"><ele></ele><time>2014-6-11T22:36:26Z</time></trkpt>
<trkpt lat="42.27413300" lon="-1.50041700"><ele></ele><time>2014-6-11T22:36:29Z</time></trkpt>
<trkpt lat="42.27391700" lon="-1.49996700"><ele></ele><time>2014-6-11T22:36:32Z</time></trkpt>
<trkpt lat="42.27353300" lon="-1.49931700"><ele></ele><time>2014-6-11T22:36:35Z</time></trkpt>
<trkpt lat="42.27330000" lon="-1.49885000"><ele></ele><time>2014-6-11T22:36:38Z</time></trkpt>
<trkpt lat="42.27310000" lon="-1.49851700"><ele></ele><time>2014-6-11T22:36:41Z</time></trkpt>
<trkpt lat="42.27360000" lon="-1.49776700"><ele></ele><time>2014-6-11T22:36:44Z</time></trkpt>
<trkpt lat="42.27361700" lon="-1.49730000"><ele></ele><time>2014-6-11T22:36:47Z</time></trkpt>
<trkpt lat="42.27313300" lon="-1.49613300"><ele></ele><time>2014-6-11T22:36:50Z</time></trkpt>
<trkpt lat="42.27310000" lon="-1.49531700"><ele></ele><time>2014-6-11T22:36:53Z</time></trkpt>
<trkpt lat="42.27331700" lon="-1.49481700"><ele></ele><time>2014-6-11T22:36:56Z</time></trkpt>
<trkpt lat="42.27353300" lon="-1.49458300"><ele></ele><time>2014-6-11T22:36:59Z</time></trkpt>
<trkpt lat="42.27373300" lon="-1.49415000"><ele></ele><time>2014-6-11T22:37:2Z</time></trkpt>
<trkpt lat="42.27378300" lon="-1.49306700"><ele></ele><time>2014-6-11T22:37:5Z</time></trkpt>
<trkpt lat="42.27361700" lon="-1.49136700"><ele></ele><time>2014-6-11T22:37:8Z</time></trkpt>
<trkpt lat="42.27373300" lon="-1.49071700"><ele></ele><time>2014-6-11T22:37:11Z</time></trkpt>
<trkpt lat="42.27388300" lon="-1.48996700"><ele></ele><time>2014-6-11T22:37:14Z</time></trkpt>
<trkpt lat="42.27381700" lon="-1.48960000"><ele></ele><time>2014-6-11T22:37:17Z</time></trkpt>
<trkpt lat="42.27366700" lon="-1.48925000"><ele></ele><time>2014-6-11T22:37:20Z</time></trkpt>
<trkpt lat="42.27381700" lon="-1.48963300"><ele></ele><time>2014-6-11T22:37:23Z</time></trkpt>
<trkpt lat="42.27415000" lon="-1.48961700"><ele></ele><time>2014-6-11T22:37:26Z</time></trkpt>
<trkpt lat="42.27448300" lon="-1.48930000"><ele></ele><time>2014-6-11T22:37:29Z</time></trkpt>
<trkpt lat="42.27485000" lon="-1.48905000"><ele></ele><time>2014-6-11T22:37:32Z</time></trkpt>
<trkpt lat="42.27516700" lon="-1.48896700"><ele></ele><time>2014-6-11T22:37:35Z</time></trkpt>
<trkpt lat="42.27545000" lon="-1.48925000"><ele></ele><time>2014-6-11T22:37:38Z</time></trkpt>
<trkpt lat="42.27618300" lon="-1.48913300"><ele></ele><time>2014-6-11T22:37:41Z</time></trkpt>
<trkpt lat="42.27678300" lon="-1.48936700"><ele></ele><time>2014-6-11T22:37:44Z</time></trkpt>
<trkpt lat="42.27706700" lon="-1.48936700"><ele></ele><time>2014-6-11T22:37:47Z</time></trkpt>
<trkpt lat="42.27725000" lon="-1.48940000"><ele></ele><time>2014-6-11T22:37:50Z</time></trkpt>
<trkpt lat="42.27740000" lon="-1.48886700"><ele></ele><time>2014-6-11T22:37:53Z</time></trkpt>
<trkpt lat="42.27750000" lon="-1.48855000"><ele></ele><time>2014-6-11T22:37:56Z</time></trkpt>
<trkpt lat="42.27718300" lon="-1.48803300"><ele></ele><time>2014-6-11T22:37:59Z</time></trkpt>
<trkpt lat="42.27710000" lon="-1.48778300"><ele></ele><time>2014-6-11T22:38:2Z</time></trkpt>
<trkpt lat="42.27698300" lon="-1.48748300"><ele></ele><time>2014-6-11T22:38:5Z</time></trkpt>
<trkpt lat="42.27678300" lon="-1.48706700"><ele></ele><time>2014-6-11T22:38:8Z</time></trkpt>
<trkpt lat="42.27670000" lon="-1.48655000"><ele></ele><time>2014-6-11T22:38:11Z</time></trkpt>
<trkpt lat="42.27661700" lon="-1.48623300"><ele></ele><time>2014-6-11T22:38:14Z</time></trkpt>
<trkpt lat="42.27648300" lon="-1.48600000"><ele></ele><time>2014-6-11T22:38:17Z</time></trkpt>
<trkpt lat="42.27640000" lon="-1.48581700"><ele></ele><time>2014-6-11T22:38:20Z</time></trkpt>
<trkpt lat="42.27645000" lon="-1.48561700"><ele></ele><time>2014-6-11T22:38:23Z</time></trkpt>
<trkpt lat="42.27641700" lon="-1.48525000"><ele></ele><time>2014-6-11T22:38:26Z</time></trkpt>
<trkpt lat="42.27663300" lon="-1.48490000"><ele></ele><time>2014-6-11T22:38:29Z</time></trkpt>
<trkpt lat="42.27670000" lon="-1.48461700"><ele></ele><time>2014-6-11T22:38:32Z</time></trkpt>
<trkpt lat="42.27683300" lon="-1.48433300"><ele></ele><time>2014-6-11T22:38:35Z</time></trkpt>
<trkpt lat="42.27703300" lon="-1.48425000"><ele></ele><time>2014-6-11T22:38:38Z</time></trkpt>
<trkpt lat="42.27716700" lon="-1.48398300"><ele></ele><time>2014-6-11T22:38:41Z</time></trkpt>
<trkpt lat="42.27761700" lon="-1.48271700"><ele></ele><time>2014-6-11T22:38:44Z</time></trkpt>
<trkpt lat="42.27745000" lon="-1.48230000"><ele></ele><time>2014-6-11T22:38:47Z</time></trkpt>
<trkpt lat="42.27721700" lon="-1.48213300"><ele></ele><time>2014-6-11T22:38:50Z</time></trkpt>
<trkpt lat="42.27695000" lon="-1.48218300"><ele></ele><time>2014-6-11T22:38:53Z</time></trkpt>
<trkpt lat="42.27678300" lon="-1.48186700"><ele></ele><time>2014-6-11T22:38:56Z</time></trkpt>
<trkpt lat="42.27641700" lon="-1.48188300"><ele></ele><time>2014-6-11T22:38:59Z</time></trkpt>
<trkpt lat="42.27613300" lon="-1.48170000"><ele></ele><time>2014-6-11T22:39:2Z</time></trkpt>
<trkpt lat="42.27585000" lon="-1.48138300"><ele></ele><time>2014-6-11T22:39:5Z</time></trkpt>
<trkpt lat="42.27563300" lon="-1.48128300"><ele></ele><time>2014-6-11T22:39:8Z</time></trkpt>
<trkpt lat="42.27525000" lon="-1.48141700"><ele></ele><time>2014-6-11T22:39:11Z</time></trkpt>
<trkpt lat="42.27500000" lon="-1.48135000"><ele></ele><time>2014-6-11T22:39:14Z</time></trkpt>
<trkpt lat="42.27461700" lon="-1.48081700"><ele></ele><time>2014-6-11T22:39:17Z</time></trkpt>
<trkpt lat="42.27468300" lon="-1.48060000"><ele></ele><time>2014-6-11T22:39:20Z</time></trkpt>
<trkpt lat="42.27441700" lon="-1.48016700"><ele></ele><time>2014-6-11T22:39:23Z</time></trkpt>
<trkpt lat="42.27413300" lon="-1.47990000"><ele></ele><time>2014-6-11T22:39:26Z</time></trkpt>
<trkpt lat="42.27383300" lon="-1.47960000"><ele></ele><time>2014-6-11T22:39:29Z</time></trkpt>
<trkpt lat="42.27360000" lon="-1.47928300"><ele></ele><time>2014-6-11T22:39:32Z</time></trkpt>
<trkpt lat="42.27321700" lon="-1.47863300"><ele></ele><time>2014-6-11T22:39:35Z</time></trkpt>
<trkpt lat="42.27301700" lon="-1.47823300"><ele></ele><time>2014-6-11T22:39:38Z</time></trkpt>
<trkpt lat="42.27275000" lon="-1.47798300"><ele></ele><time>2014-6-11T22:39:41Z</time></trkpt>
<trkpt lat="42.27248300" lon="-1.47793300"><ele></ele><time>2014-6-11T22:39:44Z</time></trkpt>
<trkpt lat="42.27233300" lon="-1.47808300"><ele></ele><time>2014-6-11T22:39:47Z</time></trkpt>
<trkpt lat="42.27201700" lon="-1.47763300"><ele></ele><time>2014-6-11T22:39:50Z</time></trkpt>
<trkpt lat="42.27158300" lon="-1.47701700"><ele></ele><time>2014-6-11T22:39:53Z</time></trkpt>
<trkpt lat="42.27176700" lon="-1.47628300"><ele></ele><time>2014-6-11T22:39:56Z</time></trkpt>
<trkpt lat="42.27203300" lon="-1.47593300"><ele></ele><time>2014-6-11T22:39:59Z</time></trkpt>
<trkpt lat="42.27235000" lon="-1.47561700"><ele></ele><time>2014-6-11T22:40:2Z</time></trkpt>
<trkpt lat="42.27405000" lon="-1.47288300"><ele></ele><time>2014-6-11T22:40:5Z</time></trkpt>
<trkpt lat="42.27420000" lon="-1.47243300"><ele></ele><time>2014-6-11T22:40:8Z</time></trkpt>
<trkpt lat="42.27440000" lon="-1.47141700"><ele></ele><time>2014-6-11T22:40:11Z</time></trkpt>
<trkpt lat="42.27500000" lon="-1.46845000"><ele></ele><time>2014-6-11T22:40:14Z</time></trkpt>
<trkpt lat="42.27511700" lon="-1.46796700"><ele></ele><time>2014-6-11T22:40:17Z</time></trkpt>
<trkpt lat="42.27526700" lon="-1.46758300"><ele></ele><time>2014-6-11T22:40:20Z</time></trkpt>
<trkpt lat="42.27536700" lon="-1.46731700"><ele></ele><time>2014-6-11T22:40:23Z</time></trkpt>
<trkpt lat="42.27546700" lon="-1.46688300"><ele></ele><time>2014-6-11T22:40:26Z</time></trkpt>
<trkpt lat="42.27620000" lon="-1.46605000"><ele></ele><time>2014-6-11T22:40:29Z</time></trkpt>
<trkpt lat="42.27648300" lon="-1.46583300"><ele></ele><time>2014-6-11T22:40:32Z</time></trkpt>
<trkpt lat="42.27658300" lon="-1.46546700"><ele></ele><time>2014-6-11T22:40:35Z</time></trkpt>
<trkpt lat="42.27655000" lon="-1.46486700"><ele></ele><time>2014-6-11T22:40:38Z</time></trkpt>
<trkpt lat="42.27646700" lon="-1.46390000"><ele></ele><time>2014-6-11T22:40:41Z</time></trkpt>
<trkpt lat="42.27635000" lon="-1.46341700"><ele></ele><time>2014-6-11T22:40:44Z</time></trkpt>
<trkpt lat="42.27603300" lon="-1.46261700"><ele></ele><time>2014-6-11T22:40:47Z</time></trkpt>
<trkpt lat="42.27565000" lon="-1.46121700"><ele></ele><time>2014-6-11T22:40:50Z</time></trkpt>
<trkpt lat="42.27588300" lon="-1.46088300"><ele></ele><time>2014-6-11T22:40:53Z</time></trkpt>
<trkpt lat="42.27605000" lon="-1.46051700"><ele></ele><time>2014-6-11T22:40:56Z</time></trkpt>
<trkpt lat="42.27620000" lon="-1.46023300"><ele></ele><time>2014-6-11T22:40:59Z</time></trkpt>
<trkpt lat="42.27635000" lon="-1.45986700"><ele></ele><time>2014-6-11T22:41:2Z</time></trkpt>
<trkpt lat="42.27653300" lon="-1.45965000"><ele></ele><time>2014-6-11T22:41:5Z</time></trkpt>
<trkpt lat="42.27685000" lon="-1.45940000"><ele></ele><time>2014-6-11T22:41:8Z</time></trkpt>
<trkpt lat="42.27730000" lon="-1.45915000"><ele></ele><time>2014-6-11T22:41:11Z</time></trkpt>
<trkpt lat="42.27756700" lon="-1.45901700"><ele></ele><time>2014-6-11T22:41:14Z</time></trkpt>
<trkpt lat="42.27790000" lon="-1.45893300"><ele></ele><time>2014-6-11T22:41:17Z</time></trkpt>
<trkpt lat="42.27815000" lon="-1.45865000"><ele></ele><time>2014-6-11T22:41:20Z</time></trkpt>
<trkpt lat="42.27830000" lon="-1.45848300"><ele></ele><time>2014-6-11T22:41:23Z</time></trkpt>
<trkpt lat="42.27836700" lon="-1.45823300"><ele></ele><time>2014-6-11T22:41:26Z</time></trkpt>
<trkpt lat="42.27835000" lon="-1.45781700"><ele></ele><time>2014-6-11T22:41:29Z</time></trkpt>
<trkpt lat="42.27845000" lon="-1.45758300"><ele></ele><time>2014-6-11T22:41:32Z</time></trkpt>
<trkpt lat="42.27861700" lon="-1.45708300"><ele></ele><time>2014-6-11T22:41:35Z</time></trkpt>
<trkpt lat="42.27880000" lon="-1.45678300"><ele></ele><time>2014-6-11T22:41:38Z</time></trkpt>
<trkpt lat="42.27898300" lon="-1.45656700"><ele></ele><time>2014-6-11T22:41:41Z</time></trkpt>
<trkpt lat="42.27928300" lon="-1.45660000"><ele></ele><time>2014-6-11T22:41:44Z</time></trkpt>
<trkpt lat="42.27936700" lon="-1.45633300"><ele></ele><time>2014-6-11T22:41:47Z</time></trkpt>
<trkpt lat="42.27955000" lon="-1.45591700"><ele></ele><time>2014-6-11T22:41:50Z</time></trkpt>
<trkpt lat="42.27941700" lon="-1.45560000"><ele></ele><time>2014-6-11T22:41:53Z</time></trkpt>
<trkpt lat="42.27946700" lon="-1.45481700"><ele></ele><time>2014-6-11T22:41:56Z</time></trkpt>
<trkpt lat="42.27968300" lon="-1.45436700"><ele></ele><time>2014-6-11T22:41:59Z</time></trkpt>
<trkpt lat="42.28088300" lon="-1.45311700"><ele></ele><time>2014-6-11T22:42:2Z</time></trkpt>
<trkpt lat="42.28086700" lon="-1.45261700"><ele></ele><time>2014-6-11T22:42:5Z</time></trkpt>
<trkpt lat="42.28081700" lon="-1.45243300"><ele></ele><time>2014-6-11T22:42:8Z</time></trkpt>
<trkpt lat="42.28081700" lon="-1.45206700"><ele></ele><time>2014-6-11T22:42:11Z</time></trkpt>
<trkpt lat="42.28071700" lon="-1.45180000"><ele></ele><time>2014-6-11T22:42:14Z</time></trkpt>
<trkpt lat="42.28068300" lon="-1.45141700"><ele></ele><time>2014-6-11T22:42:17Z</time></trkpt>
<trkpt lat="42.28043300" lon="-1.45080000"><ele></ele><time>2014-6-11T22:42:20Z</time></trkpt>
<trkpt lat="42.28048300" lon="-1.45055000"><ele></ele><time>2014-6-11T22:42:23Z</time></trkpt>
<trkpt lat="42.28068300" lon="-1.45046700"><ele></ele><time>2014-6-11T22:42:26Z</time></trkpt>
<trkpt lat="42.28086700" lon="-1.45033300"><ele></ele><time>2014-6-11T22:42:29Z</time></trkpt>
<trkpt lat="42.28106700" lon="-1.44990000"><ele></ele><time>2014-6-11T22:42:32Z</time></trkpt>
<trkpt lat="42.28123300" lon="-1.44978300"><ele></ele><time>2014-6-11T22:42:35Z</time></trkpt>
<trkpt lat="42.28138300" lon="-1.45016700"><ele></ele><time>2014-6-11T22:42:38Z</time></trkpt>
<trkpt lat="42.28153300" lon="-1.45031700"><ele></ele><time>2014-6-11T22:42:41Z</time></trkpt>
<trkpt lat="42.28186700" lon="-1.45035000"><ele></ele><time>2014-6-11T22:42:44Z</time></trkpt>
<trkpt lat="42.28213300" lon="-1.45025000"><ele></ele><time>2014-6-11T22:42:47Z</time></trkpt>
<trkpt lat="42.28231700" lon="-1.45006700"><ele></ele><time>2014-6-11T22:42:50Z</time></trkpt>
<trkpt lat="42.28248300" lon="-1.45018300"><ele></ele><time>2014-6-11T22:42:53Z</time></trkpt>
<trkpt lat="42.28268300" lon="-1.45030000"><ele></ele><time>2014-6-11T22:42:56Z</time></trkpt>
<trkpt lat="42.28275000" lon="-1.45051700"><ele></ele><time>2014-6-11T22:42:59Z</time></trkpt>
<trkpt lat="42.28255000" lon="-1.45036700"><ele></ele><time>2014-6-11T22:43:2Z</time></trkpt>
<trkpt lat="42.28240000" lon="-1.45035000"><ele></ele><time>2014-6-11T22:43:5Z</time></trkpt>
<trkpt lat="42.28226700" lon="-1.45063300"><ele></ele><time>2014-6-11T22:43:8Z</time></trkpt>
<trkpt lat="42.28195000" lon="-1.45070000"><ele></ele><time>2014-6-11T22:43:11Z</time></trkpt>
<trkpt lat="42.28220000" lon="-1.45015000"><ele></ele><time>2014-6-11T22:43:14Z</time></trkpt>
<trkpt lat="42.28218300" lon="-1.44985000"><ele></ele><time>2014-6-11T22:43:17Z</time></trkpt>
<trkpt lat="42.28233300" lon="-1.44958300"><ele></ele><time>2014-6-11T22:43:20Z</time></trkpt>
<trkpt lat="42.28271700" lon="-1.44920000"><ele></ele><time>2014-6-11T22:43:23Z</time></trkpt>
<trkpt lat="42.28290000" lon="-1.44893300"><ele></ele><time>2014-6-11T22:43:26Z</time></trkpt>
<trkpt lat="42.28390000" lon="-1.44815000"><ele></ele><time>2014-6-11T22:43:29Z</time></trkpt>
<trkpt lat="42.28448300" lon="-1.44763300"><ele></ele><time>2014-6-11T22:43:32Z</time></trkpt>
<trkpt lat="42.28483300" lon="-1.44736700"><ele></ele><time>2014-6-11T22:43:35Z</time></trkpt>
<trkpt lat="42.28545000" lon="-1.44683300"><ele></ele><time>2014-6-11T22:43:38Z</time></trkpt>
<trkpt lat="42.28623300" lon="-1.44643300"><ele></ele><time>2014-6-11T22:43:41Z</time></trkpt>
<trkpt lat="42.28668300" lon="-1.44625000"><ele></ele><time>2014-6-11T22:43:44Z</time></trkpt>
<trkpt lat="42.28790000" lon="-1.44576700"><ele></ele><time>2014-6-11T22:43:47Z</time></trkpt>
<trkpt lat="42.28878300" lon="-1.44513300"><ele></ele><time>2014-6-11T22:43:50Z</time></trkpt>
<trkpt lat="42.28915000" lon="-1.44501700"><ele></ele><time>2014-6-11T22:43:53Z</time></trkpt>
<trkpt lat="42.29103300" lon="-1.44478300"><ele></ele><time>2014-6-11T22:43:56Z</time></trkpt>
<trkpt lat="42.29350000" lon="-1.44320000"><ele></ele><time>2014-6-11T22:43:59Z</time></trkpt>
<trkpt lat="42.29571700" lon="-1.44133300"><ele></ele><time>2014-6-11T22:44:2Z</time></trkpt>
<trkpt lat="42.29678300" lon="-1.44058300"><ele></ele><time>2014-6-11T22:44:5Z</time></trkpt>
<trkpt lat="42.29713300" lon="-1.44013300"><ele></ele><time>2014-6-11T22:44:8Z</time></trkpt>
<trkpt lat="42.29771700" lon="-1.43955000"><ele></ele><time>2014-6-11T22:44:11Z</time></trkpt>
<trkpt lat="42.29940000" lon="-1.43736700"><ele></ele><time>2014-6-11T22:44:14Z</time></trkpt>
<trkpt lat="42.30015000" lon="-1.43516700"><ele></ele><time>2014-6-11T22:44:17Z</time></trkpt>
<trkpt lat="42.30016700" lon="-1.43480000"><ele></ele><time>2014-6-11T22:44:20Z</time></trkpt>
<trkpt lat="42.30003300" lon="-1.43440000"><ele></ele><time>2014-6-11T22:44:23Z</time></trkpt>
<trkpt lat="42.30010000" lon="-1.43396700"><ele></ele><time>2014-6-11T22:44:26Z</time></trkpt>
<trkpt lat="42.30030000" lon="-1.43343300"><ele></ele><time>2014-6-11T22:44:29Z</time></trkpt>
<trkpt lat="42.30045000" lon="-1.43260000"><ele></ele><time>2014-6-11T22:44:32Z</time></trkpt>
<trkpt lat="42.30143300" lon="-1.42838300"><ele></ele><time>2014-6-11T22:44:35Z</time></trkpt>
<trkpt lat="42.30148300" lon="-1.42758300"><ele></ele><time>2014-6-11T22:44:38Z</time></trkpt>
<trkpt lat="42.30175000" lon="-1.42628300"><ele></ele><time>2014-6-11T22:44:41Z</time></trkpt>
<trkpt lat="42.30203300" lon="-1.42516700"><ele></ele><time>2014-6-11T22:44:44Z</time></trkpt>
<trkpt lat="42.30233300" lon="-1.42395000"><ele></ele><time>2014-6-11T22:44:47Z</time></trkpt>
<trkpt lat="42.30263300" lon="-1.42273300"><ele></ele><time>2014-6-11T22:44:50Z</time></trkpt>
<trkpt lat="42.30355000" lon="-1.42018300"><ele></ele><time>2014-6-11T22:44:53Z</time></trkpt>
<trkpt lat="42.30366700" lon="-1.41968300"><ele></ele><time>2014-6-11T22:44:56Z</time></trkpt>
<trkpt lat="42.30375000" lon="-1.41918300"><ele></ele><time>2014-6-11T22:44:59Z</time></trkpt>
<trkpt lat="42.30380000" lon="-1.41878300"><ele></ele><time>2014-6-11T22:45:2Z</time></trkpt>
<trkpt lat="42.30436700" lon="-1.41800000"><ele></ele><time>2014-6-11T22:45:5Z</time></trkpt>
<trkpt lat="42.30446700" lon="-1.41771700"><ele></ele><time>2014-6-11T22:45:8Z</time></trkpt>
<trkpt lat="42.30468300" lon="-1.41751700"><ele></ele><time>2014-6-11T22:45:11Z</time></trkpt>
<trkpt lat="42.30495000" lon="-1.41720000"><ele></ele><time>2014-6-11T22:45:14Z</time></trkpt>
</trkseg></trk></gpx>